sensor_id;sensor_type;location;lat;lon;timestamp;pressure;altitude;pressure_sealevel;temperature;humidity
71917;BME280;59793;46.506;6.674;2022-09-19T00:01:35;97339.84;;;14.02;47.81
71917;BME280;59793;46.506;6.674;2022-09-19T00:04:15;97336.69;;;13.93;47.83
71917;BME280;59793;46.506;6.674;2022-09-19T00:06:42;97331.09;;;13.98;47.69
71917;BME280;59793;46.506;6.674;2022-09-19T00:09:09;97335.91;;;13.92;47.81
71917;BME280;59793;46.506;6.674;2022-09-19T00:11:37;97335.16;;;13.92;47.90
71917;BME280;59793;46.506;6.674;2022-09-19T00:14:03;97338.63;;;13.96;47.93
71917;BME280;59793;46.506;6.674;2022-09-19T00:16:34;97326.50;;;13.95;47.83
71917;BME280;59793;46.506;6.674;2022-09-19T00:19:02;97335.56;;;13.94;47.51
71917;BME280;59793;46.506;6.674;2022-09-19T00:21:40;97326.09;;;13.93;47.73
71917;BME280;59793;46.506;6.674;2022-09-19T00:24:09;97331.75;;;13.91;47.83
71917;BME280;59793;46.506;6.674;2022-09-19T00:26:54;97316.94;;;13.86;47.70
71917;BME280;59793;46.506;6.674;2022-09-19T00:29:21;97321.91;;;13.92;48.12
71917;BME280;59793;46.506;6.674;2022-09-19T00:31:46;97338.81;;;13.83;48.55
71917;BME280;59793;46.506;6.674;2022-09-19T00:34:13;97337.34;;;13.86;47.81
71917;BME280;59793;46.506;6.674;2022-09-19T00:36:40;97319.97;;;13.88;47.46
71917;BME280;59793;46.506;6.674;2022-09-19T00:39:07;97321.91;;;13.92;48.11
71917;BME280;59793;46.506;6.674;2022-09-19T00:41:34;97336.53;;;14.08;48.04
71917;BME280;59793;46.506;6.674;2022-09-19T00:44:05;97323.09;;;13.94;48.25
71917;BME280;59793;46.506;6.674;2022-09-19T00:46:33;97334.38;;;13.91;48.19
71917;BME280;59793;46.506;6.674;2022-09-19T00:49:03;97332.50;;;13.92;47.89
71917;BME280;59793;46.506;6.674;2022-09-19T00:54:18;97330.88;;;13.83;48.65
71917;BME280;59793;46.506;6.674;2022-09-19T00:56:46;97329.19;;;13.72;49.15
71917;BME280;59793;46.506;6.674;2022-09-19T00:59:13;97315.34;;;13.59;49.60
71917;BME280;59793;46.506;6.674;2022-09-19T01:01:40;97331.66;;;13.61;49.46
71917;BME280;59793;46.506;6.674;2022-09-19T01:04:19;97331.94;;;13.56;50.09
71917;BME280;59793;46.506;6.674;2022-09-19T01:17:53;97323.28;;;13.59;49.60
71917;BME280;59793;46.506;6.674;2022-09-19T01:25:48;97330.16;;;13.63;49.54
71917;BME280;59793;46.506;6.674;2022-09-19T01:28:18;97332.59;;;13.72;49.55
71917;BME280;59793;46.506;6.674;2022-09-19T01:31:00;97331.19;;;13.78;49.34
71917;BME280;59793;46.506;6.674;2022-09-19T01:34:06;97332.28;;;13.77;49.14
71917;BME280;59793;46.506;6.674;2022-09-19T01:39:28;97345.78;;;13.69;49.05
71917;BME280;59793;46.506;6.674;2022-09-19T01:41:56;97351.94;;;13.76;49.04
71917;BME280;59793;46.506;6.674;2022-09-19T01:44:26;97351.56;;;13.78;49.64
71917;BME280;59793;46.506;6.674;2022-09-19T01:47:21;97350.88;;;13.81;49.27
71917;BME280;59793;46.506;6.674;2022-09-19T01:55:54;97345.22;;;13.59;50.05
71917;BME280;59793;46.506;6.674;2022-09-19T01:58:26;97347.13;;;13.59;49.83
71917;BME280;59793;46.506;6.674;2022-09-19T02:01:05;97350.63;;;13.67;50.68
71917;BME280;59793;46.506;6.674;2022-09-19T02:03:53;97348.75;;;13.67;50.47
71917;BME280;59793;46.506;6.674;2022-09-19T02:06:30;97353.28;;;13.67;51.02
71917;BME280;59793;46.506;6.674;2022-09-19T02:09:11;97345.94;;;13.56;51.23
71917;BME280;59793;46.506;6.674;2022-09-19T02:11:42;97331.34;;;13.43;51.58
71917;BME280;59793;46.506;6.674;2022-09-19T02:14:12;97336.44;;;13.13;52.75
71917;BME280;59793;46.506;6.674;2022-09-19T02:16:53;97344.94;;;13.03;53.06
71917;BME280;59793;46.506;6.674;2022-09-19T02:19:30;97340.00;;;12.82;53.59
71917;BME280;59793;46.506;6.674;2022-09-19T02:22:10;97340.69;;;12.79;53.38
71917;BME280;59793;46.506;6.674;2022-09-19T02:24:40;97343.22;;;12.91;53.15
71917;BME280;59793;46.506;6.674;2022-09-19T02:27:18;97338.38;;;12.97;52.14
71917;BME280;59793;46.506;6.674;2022-09-19T02:29:52;97350.34;;;13.10;52.75
71917;BME280;59793;46.506;6.674;2022-09-19T02:32:19;97352.88;;;13.03;53.50
71917;BME280;59793;46.506;6.674;2022-09-19T02:34:46;97342.94;;;12.77;53.95
71917;BME280;59793;46.506;6.674;2022-09-19T02:39:49;97334.56;;;12.75;53.17
71917;BME280;59793;46.506;6.674;2022-09-19T02:42:36;97337.09;;;12.87;53.02
71917;BME280;59793;46.506;6.674;2022-09-19T02:47:38;97337.84;;;12.87;53.65
71917;BME280;59793;46.506;6.674;2022-09-19T02:50:17;97344.81;;;12.76;54.58
71917;BME280;59793;46.506;6.674;2022-09-19T02:52:47;97345.13;;;12.75;55.19
71917;BME280;59793;46.506;6.674;2022-09-19T02:55:17;97353.13;;;12.78;55.33
71917;BME280;59793;46.506;6.674;2022-09-19T02:57:47;97347.31;;;12.69;55.62
71917;BME280;59793;46.506;6.674;2022-09-19T03:00:14;97347.34;;;12.53;56.90
71917;BME280;59793;46.506;6.674;2022-09-19T03:02:51;97345.50;;;12.38;56.98
71917;BME280;59793;46.506;6.674;2022-09-19T03:05:22;97335.47;;;12.12;57.64
71917;BME280;59793;46.506;6.674;2022-09-19T03:07:58;97336.63;;;11.95;58.12
71917;BME280;59793;46.506;6.674;2022-09-19T03:10:28;97343.78;;;11.94;57.66
71917;BME280;59793;46.506;6.674;2022-09-19T03:13:00;97342.25;;;11.93;57.73
71917;BME280;59793;46.506;6.674;2022-09-19T03:15:46;97338.75;;;11.89;58.99
71917;BME280;59793;46.506;6.674;2022-09-19T03:18:15;97335.56;;;11.68;59.89
71917;BME280;59793;46.506;6.674;2022-09-19T03:20:48;97335.22;;;11.54;59.69
71917;BME280;59793;46.506;6.674;2022-09-19T03:23:19;97329.41;;;11.32;60.35
71917;BME280;59793;46.506;6.674;2022-09-19T03:25:47;97324.09;;;11.16;60.92
71917;BME280;59793;46.506;6.674;2022-09-19T03:28:12;97328.78;;;11.23;60.83
71917;BME280;59793;46.506;6.674;2022-09-19T03:30:37;97332.97;;;11.24;61.03
71917;BME280;59793;46.506;6.674;2022-09-19T03:33:03;97326.34;;;11.30;60.81
71917;BME280;59793;46.506;6.674;2022-09-19T03:35:28;97327.56;;;11.48;60.40
71917;BME280;59793;46.506;6.674;2022-09-19T03:37:54;97329.84;;;11.66;60.44
71917;BME280;59793;46.506;6.674;2022-09-19T03:40:20;97334.38;;;11.81;59.51
71917;BME280;59793;46.506;6.674;2022-09-19T03:42:47;97330.22;;;11.80;59.80
71917;BME280;59793;46.506;6.674;2022-09-19T03:45:18;97317.03;;;11.80;59.49
71917;BME280;59793;46.506;6.674;2022-09-19T03:47:43;97330.91;;;11.77;59.89
71917;BME280;59793;46.506;6.674;2022-09-19T03:50:09;97328.66;;;11.79;59.71
71917;BME280;59793;46.506;6.674;2022-09-19T03:52:34;97324.34;;;11.71;60.48
71917;BME280;59793;46.506;6.674;2022-09-19T03:54:59;97322.88;;;11.58;60.81
71917;BME280;59793;46.506;6.674;2022-09-19T03:57:25;97327.75;;;11.56;60.73
71917;BME280;59793;46.506;6.674;2022-09-19T03:59:50;97325.88;;;11.56;61.23
71917;BME280;59793;46.506;6.674;2022-09-19T04:02:16;97325.97;;;11.60;61.03
71917;BME280;59793;46.506;6.674;2022-09-19T04:04:41;97327.22;;;11.66;60.91
71917;BME280;59793;46.506;6.674;2022-09-19T04:07:06;97320.84;;;11.67;60.55
71917;BME280;59793;46.506;6.674;2022-09-19T04:09:32;97332.66;;;11.73;60.60
71917;BME280;59793;46.506;6.674;2022-09-19T04:11:58;97338.91;;;11.81;60.83
71917;BME280;59793;46.506;6.674;2022-09-19T04:14:24;97335.69;;;11.87;60.26
71917;BME280;59793;46.506;6.674;2022-09-19T04:16:50;97334.56;;;12.04;59.57
71917;BME280;59793;46.506;6.674;2022-09-19T04:19:16;97337.03;;;12.13;58.85
71917;BME280;59793;46.506;6.674;2022-09-19T04:21:42;97332.59;;;12.17;58.04
71917;BME280;59793;46.506;6.674;2022-09-19T04:24:10;97330.00;;;12.36;57.62
71917;BME280;59793;46.506;6.674;2022-09-19T04:26:36;97328.81;;;12.34;58.18
71917;BME280;59793;46.506;6.674;2022-09-19T04:29:03;97337.53;;;12.18;58.55
71917;BME280;59793;46.506;6.674;2022-09-19T04:31:29;97332.28;;;12.03;59.19
71917;BME280;59793;46.506;6.674;2022-09-19T04:34:00;97323.06;;;11.96;59.66
71917;BME280;59793;46.506;6.674;2022-09-19T04:36:27;97334.16;;;11.86;59.92
71917;BME280;59793;46.506;6.674;2022-09-19T04:38:58;97338.34;;;11.87;59.81
71917;BME280;59793;46.506;6.674;2022-09-19T04:41:32;97333.75;;;11.84;59.93
71917;BME280;59793;46.506;6.674;2022-09-19T04:43:59;97331.28;;;11.91;59.42
71917;BME280;59793;46.506;6.674;2022-09-19T04:46:25;97335.44;;;11.92;59.61
71917;BME280;59793;46.506;6.674;2022-09-19T04:48:51;97328.13;;;12.02;58.85
71917;BME280;59793;46.506;6.674;2022-09-19T04:51:18;97332.59;;;12.01;58.82
71917;BME280;59793;46.506;6.674;2022-09-19T04:53:43;97332.69;;;12.05;59.29
71917;BME280;59793;46.506;6.674;2022-09-19T04:56:09;97337.41;;;11.95;59.27
71917;BME280;59793;46.506;6.674;2022-09-19T04:58:36;97339.75;;;12.01;59.10
71917;BME280;59793;46.506;6.674;2022-09-19T05:01:04;97340.72;;;11.92;59.53
71917;BME280;59793;46.506;6.674;2022-09-19T05:03:30;97331.28;;;11.91;59.47
71917;BME280;59793;46.506;6.674;2022-09-19T05:05:56;97338.34;;;11.87;59.65
71917;BME280;59793;46.506;6.674;2022-09-19T05:08:25;97336.97;;;11.93;59.40
71917;BME280;59793;46.506;6.674;2022-09-19T05:10:55;97342.69;;;11.95;59.45
71917;BME280;59793;46.506;6.674;2022-09-19T05:13:25;97328.78;;;11.99;59.05
71917;BME280;59793;46.506;6.674;2022-09-19T05:15:53;97344.97;;;12.13;58.55
71917;BME280;59793;46.506;6.674;2022-09-19T05:18:19;97334.19;;;12.22;58.33
71917;BME280;59793;46.506;6.674;2022-09-19T05:20:46;97333.00;;;12.19;58.64
71917;BME280;59793;46.506;6.674;2022-09-19T05:23:12;97334.28;;;12.25;58.16
71917;BME280;59793;46.506;6.674;2022-09-19T05:25:39;97323.84;;;12.13;58.27
71917;BME280;59793;46.506;6.674;2022-09-19T05:28:05;97345.19;;;12.24;57.89
71917;BME280;59793;46.506;6.674;2022-09-19T05:30:32;97333.19;;;12.26;57.90
71917;BME280;59793;46.506;6.674;2022-09-19T05:32:58;97337.66;;;12.41;57.72
71917;BME280;59793;46.506;6.674;2022-09-19T05:35:25;97340.47;;;12.33;57.86
71917;BME280;59793;46.506;6.674;2022-09-19T05:37:51;97339.72;;;12.32;58.13
71917;BME280;59793;46.506;6.674;2022-09-19T05:40:18;97342.78;;;12.34;58.26
71917;BME280;59793;46.506;6.674;2022-09-19T05:42:44;97336.22;;;12.28;58.28
71917;BME280;59793;46.506;6.674;2022-09-19T05:45:12;97335.41;;;12.24;58.72
71917;BME280;59793;46.506;6.674;2022-09-19T05:47:38;97348.47;;;12.36;58.69
71917;BME280;59793;46.506;6.674;2022-09-19T05:50:05;97346.97;;;12.35;58.67
71917;BME280;59793;46.506;6.674;2022-09-19T05:52:33;97352.09;;;12.28;59.59
71917;BME280;59793;46.506;6.674;2022-09-19T05:55:17;97350.81;;;12.22;59.72
71917;BME280;59793;46.506;6.674;2022-09-19T05:57:49;97349.88;;;12.14;59.78
71917;BME280;59793;46.506;6.674;2022-09-19T06:00:15;97354.50;;;12.17;60.03
71917;BME280;59793;46.506;6.674;2022-09-19T06:02:40;97363.59;;;12.20;59.89
71917;BME280;59793;46.506;6.674;2022-09-19T06:05:06;97360.97;;;12.20;59.56
71917;BME280;59793;46.506;6.674;2022-09-19T06:07:31;97367.94;;;12.28;58.48
71917;BME280;59793;46.506;6.674;2022-09-19T06:09:56;97361.78;;;12.40;58.07
71917;BME280;59793;46.506;6.674;2022-09-19T06:12:22;97363.56;;;12.52;57.76
71917;BME280;59793;46.506;6.674;2022-09-19T06:14:47;97381.66;;;12.69;57.37
71917;BME280;59793;46.506;6.674;2022-09-19T06:17:13;97357.19;;;12.72;57.21
71917;BME280;59793;46.506;6.674;2022-09-19T06:19:40;97361.22;;;12.85;57.46
71917;BME280;59793;46.506;6.674;2022-09-19T06:22:06;97385.16;;;12.92;57.22
71917;BME280;59793;46.506;6.674;2022-09-19T06:24:31;97380.50;;;13.05;56.67
71917;BME280;59793;46.506;6.674;2022-09-19T06:26:56;97384.19;;;13.20;56.53
71917;BME280;59793;46.506;6.674;2022-09-19T06:29:22;97383.94;;;13.25;56.53
71917;BME280;59793;46.506;6.674;2022-09-19T06:31:48;97380.44;;;13.41;56.17
71917;BME280;59793;46.506;6.674;2022-09-19T06:34:14;97389.72;;;13.50;55.73
71917;BME280;59793;46.506;6.674;2022-09-19T06:36:41;97364.69;;;13.48;55.65
71917;BME280;59793;46.506;6.674;2022-09-19T06:39:08;97385.06;;;13.67;56.09
71917;BME280;59793;46.506;6.674;2022-09-19T06:41:33;97386.00;;;13.78;55.57
71917;BME280;59793;46.506;6.674;2022-09-19T06:44:00;97375.94;;;13.87;55.61
71917;BME280;59793;46.506;6.674;2022-09-19T06:46:26;97379.91;;;13.97;54.39
71917;BME280;59793;46.506;6.674;2022-09-19T06:48:51;97386.88;;;14.08;54.76
71917;BME280;59793;46.506;6.674;2022-09-19T06:51:17;97386.03;;;14.27;54.60
71917;BME280;59793;46.506;6.674;2022-09-19T06:53:42;97391.16;;;14.40;54.93
71917;BME280;59793;46.506;6.674;2022-09-19T06:56:08;97387.91;;;14.50;53.68
71917;BME280;59793;46.506;6.674;2022-09-19T06:58:33;97378.53;;;14.56;52.73
71917;BME280;59793;46.506;6.674;2022-09-19T07:01:00;97384.03;;;14.70;53.08
71917;BME280;59793;46.506;6.674;2022-09-19T07:03:25;97383.53;;;14.91;52.80
71917;BME280;59793;46.506;6.674;2022-09-19T07:05:52;97371.91;;;15.03;52.37
71917;BME280;59793;46.506;6.674;2022-09-19T07:08:18;97375.03;;;15.12;52.36
71917;BME280;59793;46.506;6.674;2022-09-19T07:10:43;97377.44;;;15.21;50.27
71917;BME280;59793;46.506;6.674;2022-09-19T07:13:10;97368.56;;;15.43;49.77
71917;BME280;59793;46.506;6.674;2022-09-19T07:15:38;97381.91;;;15.50;50.42
71917;BME280;59793;46.506;6.674;2022-09-19T07:18:04;97381.34;;;15.68;49.18
71917;BME280;59793;46.506;6.674;2022-09-19T07:20:34;97383.00;;;15.80;49.37
71917;BME280;59793;46.506;6.674;2022-09-19T07:23:05;97392.59;;;15.95;50.40
71917;BME280;59793;46.506;6.674;2022-09-19T07:25:31;97381.91;;;15.88;50.08
71917;BME280;59793;46.506;6.674;2022-09-19T07:27:58;97378.75;;;16.19;48.65
71917;BME280;59793;46.506;6.674;2022-09-19T07:30:24;97382.22;;;16.31;49.26
71917;BME280;59793;46.506;6.674;2022-09-19T07:32:49;97390.25;;;16.38;47.00
71917;BME280;59793;46.506;6.674;2022-09-19T07:35:15;97377.38;;;16.40;47.81
71917;BME280;59793;46.506;6.674;2022-09-19T07:37:40;97382.72;;;16.43;47.81
71917;BME280;59793;46.506;6.674;2022-09-19T07:40:06;97386.63;;;16.67;47.43
71917;BME280;59793;46.506;6.674;2022-09-19T07:42:31;97366.47;;;16.63;47.33
71917;BME280;59793;46.506;6.674;2022-09-19T07:44:56;97379.75;;;16.59;46.69
71917;BME280;59793;46.506;6.674;2022-09-19T07:47:22;97375.50;;;16.44;48.76
71917;BME280;59793;46.506;6.674;2022-09-19T07:49:54;97382.91;;;16.76;46.21
71917;BME280;59793;46.506;6.674;2022-09-19T07:52:20;97376.75;;;16.64;46.17
71917;BME280;59793;46.506;6.674;2022-09-19T07:54:46;97384.75;;;16.68;46.15
71917;BME280;59793;46.506;6.674;2022-09-19T07:57:11;97387.50;;;16.79;45.88
71917;BME280;59793;46.506;6.674;2022-09-19T07:59:37;97395.19;;;16.98;44.63
71917;BME280;59793;46.506;6.674;2022-09-19T08:02:05;97397.16;;;17.15;45.18
71917;BME280;59793;46.506;6.674;2022-09-19T08:04:32;97391.56;;;17.46;45.56
71917;BME280;59793;46.506;6.674;2022-09-19T08:06:58;97385.84;;;17.47;45.25
71917;BME280;59793;46.506;6.674;2022-09-19T08:09:23;97404.47;;;17.43;45.74
71917;BME280;59793;46.506;6.674;2022-09-19T08:11:48;97404.91;;;17.63;44.25
71917;BME280;59793;46.506;6.674;2022-09-19T08:14:14;97403.00;;;17.67;43.35
71917;BME280;59793;46.506;6.674;2022-09-19T08:16:40;97400.34;;;17.75;44.18
71917;BME280;59793;46.506;6.674;2022-09-19T08:19:05;97400.75;;;17.98;43.58
71917;BME280;59793;46.506;6.674;2022-09-19T08:21:34;97395.44;;;18.05;40.82
71917;BME280;59793;46.506;6.674;2022-09-19T08:23:59;97392.00;;;18.01;43.04
71917;BME280;59793;46.506;6.674;2022-09-19T08:26:25;97403.41;;;18.27;43.72
71917;BME280;59793;46.506;6.674;2022-09-19T08:28:50;97390.06;;;18.52;43.09
71917;BME280;59793;46.506;6.674;2022-09-19T08:31:16;97390.09;;;18.34;42.15
71917;BME280;59793;46.506;6.674;2022-09-19T08:33:42;97395.44;;;18.41;40.77
71917;BME280;59793;46.506;6.674;2022-09-19T08:36:07;97391.56;;;18.63;42.27
71917;BME280;59793;46.506;6.674;2022-09-19T08:38:34;97403.78;;;18.57;42.60
71917;BME280;59793;46.506;6.674;2022-09-19T08:44:24;97399.94;;;18.69;40.60
71917;BME280;59793;46.506;6.674;2022-09-19T08:47:12;97404.16;;;18.77;40.12
71917;BME280;59793;46.506;6.674;2022-09-19T08:49:46;97399.94;;;18.58;41.32
71917;BME280;59793;46.506;6.674;2022-09-19T08:52:33;97403.41;;;18.52;40.41
71917;BME280;59793;46.506;6.674;2022-09-19T08:54:59;97386.25;;;18.56;40.77
71917;BME280;59793;46.506;6.674;2022-09-19T08:57:35;97391.13;;;18.94;40.08
71917;BME280;59793;46.506;6.674;2022-09-19T09:00:10;97392.22;;;19.03;42.04
71917;BME280;59793;46.506;6.674;2022-09-19T09:11:18;97393.88;;;18.54;40.71
71917;BME280;59793;46.506;6.674;2022-09-19T09:24:24;97395.31;;;18.98;41.79
71917;BME280;59793;46.506;6.674;2022-09-19T09:26:54;97394.84;;;19.18;42.14
71917;BME280;59793;46.506;6.674;2022-09-19T09:29:25;97393.69;;;19.26;41.22
71917;BME280;59793;46.506;6.674;2022-09-19T09:35:30;97397.94;;;19.86;39.39
71917;BME280;59793;46.506;6.674;2022-09-19T09:38:04;97391.94;;;19.61;41.29
71917;BME280;59793;46.506;6.674;2022-09-19T09:40:43;97392.25;;;19.77;39.45
71917;BME280;59793;46.506;6.674;2022-09-19T09:49:20;97394.81;;;19.91;39.20
71917;BME280;59793;46.506;6.674;2022-09-19T10:00:18;97391.16;;;20.64;38.39
71917;BME280;59793;46.506;6.674;2022-09-19T10:03:05;97384.31;;;20.60;36.33
71917;BME280;59793;46.506;6.674;2022-09-19T10:05:57;97381.75;;;20.83;37.54
71917;BME280;59793;46.506;6.674;2022-09-19T10:11:17;97385.88;;;20.91;39.34
71917;BME280;59793;46.506;6.674;2022-09-19T10:13:49;97387.50;;;20.85;37.88
71917;BME280;59793;46.506;6.674;2022-09-19T10:16:17;97383.19;;;20.91;37.04
71917;BME280;59793;46.506;6.674;2022-09-19T10:18:51;97368.56;;;20.99;39.19
71917;BME280;59793;46.506;6.674;2022-09-19T10:21:19;97378.31;;;21.17;34.82
71917;BME280;59793;46.506;6.674;2022-09-19T10:23:45;97385.28;;;21.11;36.66
71917;BME280;59793;46.506;6.674;2022-09-19T10:26:13;97380.66;;;21.11;37.37
71917;BME280;59793;46.506;6.674;2022-09-19T10:28:51;97380.00;;;21.04;38.84
71917;BME280;59793;46.506;6.674;2022-09-19T10:31:34;97379.38;;;21.23;37.71
71917;BME280;59793;46.506;6.674;2022-09-19T10:34:01;97387.75;;;20.94;37.52
71917;BME280;59793;46.506;6.674;2022-09-19T10:36:31;97381.03;;;20.79;36.71
71917;BME280;59793;46.506;6.674;2022-09-19T10:39:07;97383.09;;;20.98;38.20
71917;BME280;59793;46.506;6.674;2022-09-19T10:41:35;97385.97;;;21.15;38.74
71917;BME280;59793;46.506;6.674;2022-09-19T10:44:02;97380.47;;;21.25;38.11
71917;BME280;59793;46.506;6.674;2022-09-19T10:46:42;97385.19;;;21.18;37.32
71917;BME280;59793;46.506;6.674;2022-09-19T10:49:19;97373.97;;;21.57;37.12
71917;BME280;59793;46.506;6.674;2022-09-19T10:51:47;97374.69;;;21.85;38.45
71917;BME280;59793;46.506;6.674;2022-09-19T10:54:51;97377.38;;;21.85;35.87
71917;BME280;59793;46.506;6.674;2022-09-19T11:05:28;97371.31;;;21.54;36.51
71917;BME280;59793;46.506;6.674;2022-09-19T11:07:55;97384.63;;;21.61;37.23
71917;BME280;59793;46.506;6.674;2022-09-19T11:13:15;97372.63;;;21.11;36.40
71917;BME280;59793;46.506;6.674;2022-09-19T11:18:47;97383.66;;;21.75;35.21
71917;BME280;59793;46.506;6.674;2022-09-19T11:29:38;97372.91;;;22.25;33.14
71917;BME280;59793;46.506;6.674;2022-09-19T11:43:11;97370.78;;;23.00;34.19
71917;BME280;59793;46.506;6.674;2022-09-19T12:05:04;97375.88;;;22.74;30.41
71917;BME280;59793;46.506;6.674;2022-09-19T12:13:18;97360.16;;;23.12;32.49
71917;BME280;59793;46.506;6.674;2022-09-19T12:16:00;97363.81;;;22.62;29.16
71917;BME280;59793;46.506;6.674;2022-09-19T12:18:41;97357.81;;;22.75;31.70
71917;BME280;59793;46.506;6.674;2022-09-19T12:21:09;97361.03;;;22.26;30.87
71917;BME280;59793;46.506;6.674;2022-09-19T12:23:53;97367.28;;;22.39;31.56
71917;BME280;59793;46.506;6.674;2022-09-19T12:40:49;97350.38;;;23.22;29.77
71917;BME280;59793;46.506;6.674;2022-09-19T12:43:34;97346.78;;;23.09;29.43
71917;BME280;59793;46.506;6.674;2022-09-19T12:51:30;97342.53;;;23.11;29.40
71917;BME280;59793;46.506;6.674;2022-09-19T12:57:40;97342.22;;;23.42;29.82
71917;BME280;59793;46.506;6.674;2022-09-19T13:00:11;97333.25;;;23.65;28.55
71917;BME280;59793;46.506;6.674;2022-09-19T13:02:50;97342.59;;;23.08;30.09
71917;BME280;59793;46.506;6.674;2022-09-19T13:05:32;97341.13;;;23.23;29.40
71917;BME280;59793;46.506;6.674;2022-09-19T13:08:29;97351.88;;;23.23;30.78
71917;BME280;59793;46.506;6.674;2022-09-19T13:13:53;97343.91;;;23.00;30.53
71917;BME280;59793;46.506;6.674;2022-09-19T13:16:27;97349.41;;;22.53;32.71
71917;BME280;59793;46.506;6.674;2022-09-19T13:18:55;97348.84;;;22.81;29.15
71917;BME280;59793;46.506;6.674;2022-09-19T13:21:41;97336.03;;;23.09;28.94
71917;BME280;59793;46.506;6.674;2022-09-19T13:24:29;97345.38;;;23.21;29.99
71917;BME280;59793;46.506;6.674;2022-09-19T13:27:01;97353.00;;;22.66;29.81
71917;BME280;59793;46.506;6.674;2022-09-19T13:42:39;97341.94;;;23.89;28.71
71917;BME280;59793;46.506;6.674;2022-09-19T13:48:18;97343.31;;;24.26;27.30
71917;BME280;59793;46.506;6.674;2022-09-19T13:51:11;97336.78;;;24.11;27.74
71917;BME280;59793;46.506;6.674;2022-09-19T13:53:43;97333.19;;;24.30;26.71
71917;BME280;59793;46.506;6.674;2022-09-19T13:59:22;97338.34;;;24.41;27.72
71917;BME280;59793;46.506;6.674;2022-09-19T14:02:00;97334.97;;;24.66;26.07
71917;BME280;59793;46.506;6.674;2022-09-19T14:07:42;97326.69;;;24.15;26.85
71917;BME280;59793;46.506;6.674;2022-09-19T14:18:47;97309.16;;;24.40;25.74
71917;BME280;59793;46.506;6.674;2022-09-19T14:23:57;97327.38;;;24.90;27.57
71917;BME280;59793;46.506;6.674;2022-09-19T14:39:58;97323.88;;;23.73;27.76
71917;BME280;59793;46.506;6.674;2022-09-19T14:45:23;97324.81;;;24.28;26.97
71917;BME280;59793;46.506;6.674;2022-09-19T14:48:27;97327.94;;;24.56;27.66
71917;BME280;59793;46.506;6.674;2022-09-19T14:51:52;97325.31;;;24.23;28.30
71917;BME280;59793;46.506;6.674;2022-09-19T14:56:59;97320.31;;;23.60;28.20
71917;BME280;59793;46.506;6.674;2022-09-19T14:59:26;97326.78;;;23.62;27.52
71917;BME280;59793;46.506;6.674;2022-09-19T15:01:53;97325.03;;;23.40;28.44
71917;BME280;59793;46.506;6.674;2022-09-19T15:04:28;97322.59;;;23.61;28.72
71917;BME280;59793;46.506;6.674;2022-09-19T15:06:57;97328.88;;;23.55;28.39
71917;BME280;59793;46.506;6.674;2022-09-19T15:09:34;97324.31;;;23.72;27.51
71917;BME280;59793;46.506;6.674;2022-09-19T15:12:30;97321.69;;;23.68;29.16
71917;BME280;59793;46.506;6.674;2022-09-19T15:15:03;97321.09;;;23.77;28.46
71917;BME280;59793;46.506;6.674;2022-09-19T15:17:30;97316.94;;;23.56;29.02
71917;BME280;59793;46.506;6.674;2022-09-19T15:22:39;97319.09;;;23.12;28.87
71917;BME280;59793;46.506;6.674;2022-09-19T15:25:14;97330.38;;;23.23;29.14
71917;BME280;59793;46.506;6.674;2022-09-19T15:27:50;97326.31;;;23.15;28.49
71917;BME280;59793;46.506;6.674;2022-09-19T15:30:26;97336.41;;;23.27;29.61
71917;BME280;59793;46.506;6.674;2022-09-19T15:32:58;97333.31;;;22.93;29.92
71917;BME280;59793;46.506;6.674;2022-09-19T15:35:26;97330.25;;;22.90;29.08
71917;BME280;59793;46.506;6.674;2022-09-19T15:37:58;97330.25;;;22.90;28.24
71917;BME280;59793;46.506;6.674;2022-09-19T15:40:29;97332.84;;;23.14;28.64
71917;BME280;59793;46.506;6.674;2022-09-19T15:42:57;97326.97;;;22.63;28.09
71917;BME280;59793;46.506;6.674;2022-09-19T15:47:57;97338.38;;;23.07;29.15
71917;BME280;59793;46.506;6.674;2022-09-19T15:50:25;97341.56;;;22.82;28.92
71917;BME280;59793;46.506;6.674;2022-09-19T15:52:52;97334.47;;;22.72;29.60
71917;BME280;59793;46.506;6.674;2022-09-19T15:55:22;97338.69;;;22.93;29.85
71917;BME280;59793;46.506;6.674;2022-09-19T15:57:55;97340.94;;;22.34;30.17
71917;BME280;59793;46.506;6.674;2022-09-19T16:00:24;97333.97;;;22.13;29.73
71917;BME280;59793;46.506;6.674;2022-09-19T16:02:55;97348.72;;;22.49;30.45
71917;BME280;59793;46.506;6.674;2022-09-19T16:05:29;97343.13;;;22.39;30.78
71917;BME280;59793;46.506;6.674;2022-09-19T16:07:57;97347.34;;;22.60;30.08
71917;BME280;59793;46.506;6.674;2022-09-19T16:10:44;97338.41;;;22.67;29.45
71917;BME280;59793;46.506;6.674;2022-09-19T16:13:33;97351.41;;;22.49;30.63
71917;BME280;59793;46.506;6.674;2022-09-19T16:16:03;97345.13;;;22.75;29.67
71917;BME280;59793;46.506;6.674;2022-09-19T16:18:47;97350.66;;;22.88;30.46
71917;BME280;59793;46.506;6.674;2022-09-19T16:21:15;97348.94;;;22.78;29.79
71917;BME280;59793;46.506;6.674;2022-09-19T16:23:45;97350.50;;;23.15;29.13
71917;BME280;59793;46.506;6.674;2022-09-19T16:26:16;97343.69;;;22.90;30.02
71917;BME280;59793;46.506;6.674;2022-09-19T16:28:43;97352.38;;;22.58;30.24
71917;BME280;59793;46.506;6.674;2022-09-19T16:34:02;97350.16;;;22.53;31.09
71917;BME280;59793;46.506;6.674;2022-09-19T16:36:29;97365.22;;;22.47;30.70
71917;BME280;59793;46.506;6.674;2022-09-19T16:41:32;97357.81;;;22.55;31.09
71917;BME280;59793;46.506;6.674;2022-09-19T16:44:04;97362.94;;;22.26;30.82
71917;BME280;59793;46.506;6.674;2022-09-19T16:46:43;97353.91;;;22.16;31.72
71917;BME280;59793;46.506;6.674;2022-09-19T16:49:08;97354.06;;;22.29;31.42
71917;BME280;59793;46.506;6.674;2022-09-19T16:51:34;97364.00;;;22.52;31.55
71917;BME280;59793;46.506;6.674;2022-09-19T16:54:00;97363.31;;;22.48;30.74
71917;BME280;59793;46.506;6.674;2022-09-19T16:56:27;97367.00;;;22.10;31.53
71917;BME280;59793;46.506;6.674;2022-09-19T16:58:52;97369.97;;;21.92;31.73
71917;BME280;59793;46.506;6.674;2022-09-19T17:01:18;97369.19;;;21.68;31.87
71917;BME280;59793;46.506;6.674;2022-09-19T17:03:43;97371.97;;;21.88;31.52